PWSweather.com
Personal Weather Stations
Station Observations
KVAGLENALL
West Henrico, Glen Allen, VA 23060-6503

West HenricoGlen Allen, VA 23060-6503

Lat: 37.6554, Lon: -77.5693

Elevation: 273

Station Type: Davis Vantage Pro II

Latest ConditionsUpdated 10:15:17 PM EDT Thursday, May 26, 2016
Currently Today's Max Today's Min Today's Average
Temperature 78.2°F25.7°C 90.1°F32.3°C 60.9°F16.1°C 76.4°F24.7°C
Dew Point 65.0°F18.3°C 67.0°F19.4°C 57.5°F14.2°C 62.0°F16.7°C
Winds 3.0 mph SSW4.8 kmh SSW 10.0 mph SSW16.1 kmh SSW - 2.2 mph 3.5 kmh
Wind Gusts 5.1 mph8.2 kmh 14.1 mph22.7 kmh - -
Humidity 64% 90% 35% 64%
Pressure 30.07 in1018.3 mb 30.15 in1021.0 mb 30.03 in1016.9 mb -
Hour Temp Dew Point Humidity Winds Wind Gusts Pressure Precip Precip Rate Daily Precip Total
10:15 PM 78.2°F25.7°C 65.0°F18.3°C 64% 3.0 mph SSW4.8 kmh SSW 5.1 mph8.2 kmh 30.07 in1018.3 mb 0.00 in0.0 mm 0.00 in0.0 mm 0.00 in0.0 mm
10:00 PM 78.4°F25.8°C 64.8°F18.2°C 63% 4.0 mph S6.4 kmh S 4.0 mph6.4 kmh 30.06 in1017.9 mb 0.00 in0.0 mm 0.00 in0.0 mm 0.00 in0.0 mm
09:45 PM 78.8°F26.0°C 64.7°F18.2°C 62% 1.0 mph S1.6 kmh S 2.0 mph3.2 kmh 30.05 in1017.6 mb 0.00 in0.0 mm 0.00 in0.0 mm 0.00 in0.0 mm
09:30 PM 78.8°F26.0°C 64.7°F18.2°C 62% 3.0 mph SSW4.8 kmh SSW 3.0 mph4.8 kmh 30.06 in1017.9 mb 0.00 in0.0 mm 0.00 in0.0 mm 0.00 in0.0 mm
09:15 PM 79.1°F26.2°C 64.5°F18.1°C 61% 1.0 mph S1.6 kmh S 3.0 mph4.8 kmh 30.05 in1017.6 mb 0.00 in0.0 mm 0.00 in0.0 mm 0.00 in0.0 mm
09:00 PM 79.0°F26.1°C 64.9°F18.3°C 62% 1.0 mph S1.6 kmh S 4.0 mph6.4 kmh 30.05 in1017.6 mb 0.00 in0.0 mm 0.00 in0.0 mm 0.00 in0.0 mm
08:45 PM 79.1°F26.2°C 65.0°F18.3°C 62% Calm Calm -- 30.05 in1017.6 mb 0.00 in0.0 mm 0.00 in0.0 mm 0.00 in0.0 mm
08:30 PM 80.1°F26.7°C 64.5°F18.1°C 59% 1.0 mph S1.6 kmh S 1.0 mph1.6 kmh 30.05 in1017.6 mb 0.00 in0.0 mm 0.00 in0.0 mm 0.00 in0.0 mm
08:15 PM 81.7°F27.6°C 64.5°F18.1°C 56% Calm Calm 1.0 mph1.6 kmh 30.05 in1017.6 mb 0.00 in0.0 mm 0.00 in0.0 mm 0.00 in0.0 mm
08:00 PM 82.5°F28.1°C 64.2°F17.9°C 54% 2.0 mph S3.2 kmh S 2.0 mph3.2 kmh 30.04 in1017.3 mb 0.00 in0.0 mm 0.00 in0.0 mm 0.00 in0.0 mm
07:45 PM 83.5°F28.6°C 64.1°F17.8°C 52% 2.0 mph SSW3.2 kmh SSW 3.0 mph4.8 kmh 30.04 in1017.3 mb 0.00 in0.0 mm 0.00 in0.0 mm 0.00 in0.0 mm
07:30 PM 84.3°F29.1°C 63.7°F17.6°C 50% 2.0 mph SSW3.2 kmh SSW 4.0 mph6.4 kmh 30.04 in1017.3 mb 0.00 in0.0 mm 0.00 in0.0 mm 0.00 in0.0 mm
07:15 PM 85.0°F29.4°C 63.7°F17.6°C 49% Calm Calm 3.0 mph4.8 kmh 30.03 in1016.9 mb 0.00 in0.0 mm 0.00 in0.0 mm 0.00 in0.0 mm
07:00 PM 85.4°F29.7°C 62.9°F17.2°C 47% Calm Calm 5.1 mph8.2 kmh 30.03 in1016.9 mb 0.00 in0.0 mm 0.00 in0.0 mm 0.00 in0.0 mm
06:45 PM 85.8°F29.9°C 62.7°F17.1°C 46% 2.0 mph SSW3.2 kmh SSW 9.1 mph14.6 kmh 30.03 in1016.9 mb 0.00 in0.0 mm 0.00 in0.0 mm 0.00 in0.0 mm
06:30 PM 86.6°F30.3°C 62.8°F17.1°C 45% 8.0 mph SSW12.9 kmh SSW 12.1 mph19.5 kmh 30.03 in1016.9 mb 0.00 in0.0 mm 0.00 in0.0 mm 0.00 in0.0 mm
06:15 PM 87.2°F30.7°C 63.3°F17.4°C 45% 4.0 mph SW6.4 kmh SW 7.1 mph11.4 kmh 30.03 in1016.9 mb 0.00 in0.0 mm 0.00 in0.0 mm 0.00 in0.0 mm
06:00 PM 87.7°F30.9°C 63.1°F17.3°C 44% 1.0 mph SSW1.6 kmh SSW 4.0 mph6.4 kmh 30.03 in1016.9 mb 0.00 in0.0 mm 0.00 in0.0 mm 0.00 in0.0 mm
05:45 PM 88.3°F31.3°C 63.0°F17.2°C 43% 3.0 mph SW4.8 kmh SW 13.1 mph21.1 kmh 30.04 in1017.3 mb 0.00 in0.0 mm 0.00 in0.0 mm 0.00 in0.0 mm
05:30 PM 88.1°F31.2°C 62.2°F16.8°C 42% 4.0 mph SSW6.4 kmh SSW 6.1 mph9.8 kmh 30.04 in1017.3 mb 0.00 in0.0 mm 0.00 in0.0 mm 0.00 in0.0 mm
05:15 PM 89.3°F31.8°C 62.6°F17.0°C 41% 4.0 mph SSW6.4 kmh SSW 6.1 mph9.8 kmh 30.05 in1017.6 mb 0.00 in0.0 mm 0.00 in0.0 mm 0.00 in0.0 mm
05:00 PM 89.3°F31.8°C 62.6°F17.0°C 41% Calm Calm 6.1 mph9.8 kmh 30.05 in1017.6 mb 0.00 in0.0 mm 0.00 in0.0 mm 0.00 in0.0 mm
04:45 PM 89.6°F32.0°C 63.4°F17.4°C 42% 3.0 mph S4.8 kmh S 6.1 mph9.8 kmh 30.06 in1017.9 mb 0.00 in0.0 mm 0.00 in0.0 mm 0.00 in0.0 mm
04:30 PM 89.1°F31.7°C 60.3°F15.7°C 38% 3.0 mph SSW4.8 kmh SSW 10.1 mph16.3 kmh 30.06 in1017.9 mb 0.00 in0.0 mm 0.00 in0.0 mm 0.00 in0.0 mm
04:15 PM 89.6°F32.0°C 62.1°F16.7°C 40% 9.0 mph S14.5 kmh S 10.1 mph16.3 kmh 30.06 in1017.9 mb 0.00 in0.0 mm 0.00 in0.0 mm 0.00 in0.0 mm
04:00 PM 90.1°F32.3°C 61.1°F16.2°C 38% 2.0 mph S3.2 kmh S 10.1 mph16.3 kmh 30.07 in1018.3 mb 0.00 in0.0 mm 0.00 in0.0 mm 0.00 in0.0 mm
03:45 PM 89.9°F32.2°C 58.6°F14.8°C 35% 5.0 mph S8.0 kmh S 13.1 mph21.1 kmh 30.07 in1018.3 mb 0.00 in0.0 mm 0.00 in0.0 mm 0.00 in0.0 mm
03:30 PM 89.6°F32.0°C 60.6°F15.9°C 38% 3.0 mph S4.8 kmh S 8.1 mph13.0 kmh 30.07 in1018.3 mb 0.00 in0.0 mm 0.00 in0.0 mm 0.00 in0.0 mm
03:15 PM 89.1°F31.7°C 63.1°F17.3°C 42% Calm Calm 5.1 mph8.2 kmh 30.07 in1018.3 mb 0.00 in0.0 mm 0.00 in0.0 mm 0.00 in0.0 mm
03:00 PM 89.3°F31.8°C 61.2°F16.2°C 39% Calm Calm 9.1 mph14.6 kmh 30.08 in1018.6 mb 0.00 in0.0 mm 0.00 in0.0 mm 0.00 in0.0 mm
02:45 PM 89.9°F32.2°C 60.9°F16.1°C 38% 1.0 mph S1.6 kmh S 14.1 mph22.7 kmh 30.08 in1018.6 mb 0.00 in0.0 mm 0.00 in0.0 mm 0.00 in0.0 mm
02:30 PM 89.9°F32.2°C 63.0°F17.2°C 41% 3.0 mph W4.8 kmh W 10.1 mph16.3 kmh 30.08 in1018.6 mb 0.00 in0.0 mm 0.00 in0.0 mm 0.00 in0.0 mm
02:15 PM 88.7°F31.5°C 64.7°F18.2°C 45% 4.0 mph SSW6.4 kmh SSW 7.1 mph11.4 kmh 30.09 in1019.0 mb 0.00 in0.0 mm 0.00 in0.0 mm 0.00 in0.0 mm
02:00 PM 88.5°F31.4°C 65.1°F18.4°C 46% 9.0 mph S14.5 kmh S 11.1 mph17.9 kmh 30.09 in1019.0 mb 0.00 in0.0 mm 0.00 in0.0 mm 0.00 in0.0 mm
01:45 PM 89.1°F31.7°C 63.8°F17.7°C 43% 10.0 mph SSW16.1 kmh SSW 10.1 mph16.3 kmh 30.09 in1019.0 mb 0.00 in0.0 mm 0.00 in0.0 mm 0.00 in0.0 mm
01:30 PM 88.5°F31.4°C 62.5°F16.9°C 42% 6.0 mph S9.7 kmh S 11.1 mph17.9 kmh 30.09 in1019.0 mb 0.00 in0.0 mm 0.00 in0.0 mm 0.00 in0.0 mm
01:15 PM 88.3°F31.3°C 65.6°F18.7°C 47% 4.0 mph S6.4 kmh S 7.1 mph11.4 kmh 30.10 in1019.3 mb 0.00 in0.0 mm 0.00 in0.0 mm 0.00 in0.0 mm
01:00 PM 88.1°F31.2°C 66.0°F18.9°C 48% 1.0 mph S1.6 kmh S 6.1 mph9.8 kmh 30.11 in1019.6 mb 0.00 in0.0 mm 0.00 in0.0 mm 0.00 in0.0 mm
12:45 PM 88.3°F31.3°C 65.0°F18.3°C 46% 10.0 mph SSW16.1 kmh SSW 12.1 mph19.5 kmh 30.11 in1019.6 mb 0.00 in0.0 mm 0.00 in0.0 mm 0.00 in0.0 mm
12:30 PM 87.2°F30.7°C 65.8°F18.8°C 49% 3.0 mph S4.8 kmh S 6.1 mph9.8 kmh 30.11 in1019.6 mb 0.00 in0.0 mm 0.00 in0.0 mm 0.00 in0.0 mm
12:15 PM 86.6°F30.3°C 66.9°F19.4°C 52% 4.0 mph SW6.4 kmh SW 9.1 mph14.6 kmh 30.11 in1019.6 mb 0.00 in0.0 mm 0.00 in0.0 mm 0.00 in0.0 mm
12:00 PM 85.2°F29.6°C 65.6°F18.7°C 52% 6.0 mph S9.7 kmh S 10.1 mph16.3 kmh 30.12 in1020.0 mb 0.00 in0.0 mm 0.00 in0.0 mm 0.00 in0.0 mm
11:45 AM 85.0°F29.4°C 65.4°F18.6°C 52% 7.0 mph SSW11.3 kmh SSW 13.1 mph21.1 kmh 30.12 in1020.0 mb 0.00 in0.0 mm 0.00 in0.0 mm 0.00 in0.0 mm
11:30 AM 84.8°F29.3°C 66.3°F19.1°C 54% 1.0 mph SSE1.6 kmh SSE 10.1 mph16.3 kmh 30.12 in1020.0 mb 0.00 in0.0 mm 0.00 in0.0 mm 0.00 in0.0 mm
11:15 AM 83.9°F28.8°C 66.6°F19.2°C 56% 6.0 mph SSW9.7 kmh SSW 7.1 mph11.4 kmh 30.13 in1020.3 mb 0.00 in0.0 mm 0.00 in0.0 mm 0.00 in0.0 mm
11:00 AM 82.9°F28.3°C 66.1°F18.9°C 57% 1.0 mph S1.6 kmh S 3.0 mph4.8 kmh 30.13 in1020.3 mb 0.00 in0.0 mm 0.00 in0.0 mm 0.00 in0.0 mm
10:45 AM 82.1°F27.8°C 65.4°F18.6°C 57% 1.0 mph SW1.6 kmh SW 11.1 mph17.9 kmh 30.13 in1020.3 mb 0.00 in0.0 mm 0.00 in0.0 mm 0.00 in0.0 mm
10:30 AM 81.7°F27.6°C 67.0°F19.4°C 61% 2.0 mph SW3.2 kmh SW 2.0 mph3.2 kmh 30.13 in1020.3 mb 0.00 in0.0 mm 0.00 in0.0 mm 0.00 in0.0 mm
10:15 AM 81.2°F27.3°C 64.5°F18.1°C 57% 3.0 mph S4.8 kmh S 4.0 mph6.4 kmh 30.13 in1020.3 mb 0.00 in0.0 mm 0.00 in0.0 mm 0.00 in0.0 mm
10:00 AM 79.9°F26.6°C 65.3°F18.5°C 61% 5.0 mph S8.0 kmh S 6.1 mph9.8 kmh 30.13 in1020.3 mb 0.00 in0.0 mm 0.00 in0.0 mm 0.00 in0.0 mm
09:45 AM 79.5°F26.4°C 65.4°F18.6°C 62% 1.0 mph S1.6 kmh S 5.1 mph8.2 kmh 30.13 in1020.3 mb 0.00 in0.0 mm 0.00 in0.0 mm 0.00 in0.0 mm
09:30 AM 77.7°F25.4°C 63.2°F17.3°C 61% 2.0 mph SW3.2 kmh SW 7.1 mph11.4 kmh 30.15 in1021.0 mb 0.00 in0.0 mm 0.00 in0.0 mm 0.00 in0.0 mm
09:15 AM 77.2°F25.1°C 64.1°F17.8°C 64% 2.0 mph S3.2 kmh S 4.0 mph6.4 kmh 30.14 in1020.7 mb 0.00 in0.0 mm 0.00 in0.0 mm 0.00 in0.0 mm
09:00 AM 75.9°F24.4°C 63.3°F17.4°C 65% 5.0 mph SW8.0 kmh SW 7.1 mph11.4 kmh 30.15 in1021.0 mb 0.00 in0.0 mm 0.00 in0.0 mm 0.00 in0.0 mm
08:45 AM 74.4°F23.6°C 63.6°F17.6°C 69% 4.0 mph S6.4 kmh S 4.0 mph6.4 kmh 30.15 in1021.0 mb 0.00 in0.0 mm 0.00 in0.0 mm 0.00 in0.0 mm
08:30 AM 72.0°F22.2°C 63.2°F17.3°C 74% Calm Calm 3.0 mph4.8 kmh 30.15 in1021.0 mb 0.00 in0.0 mm 0.00 in0.0 mm 0.00 in0.0 mm
08:15 AM 69.9°F21.1°C 62.0°F16.7°C 76% 2.0 mph SSW3.2 kmh SSW 4.0 mph6.4 kmh 30.15 in1021.0 mb 0.00 in0.0 mm 0.00 in0.0 mm 0.00 in0.0 mm
08:00 AM 68.7°F20.4°C 61.6°F16.4°C 78% 4.0 mph S6.4 kmh S 4.0 mph6.4 kmh 30.14 in1020.7 mb 0.00 in0.0 mm 0.00 in0.0 mm 0.00 in0.0 mm
07:45 AM 67.3°F19.6°C 61.3°F16.3°C 81% 3.0 mph S4.8 kmh S 3.0 mph4.8 kmh 30.14 in1020.7 mb 0.00 in0.0 mm 0.00 in0.0 mm 0.00 in0.0 mm
07:30 AM 66.0°F18.9°C 60.7°F15.9°C 83% Calm Calm 4.0 mph6.4 kmh 30.15 in1021.0 mb 0.00 in0.0 mm 0.00 in0.0 mm 0.00 in0.0 mm
07:15 AM 64.9°F18.3°C 60.3°F15.7°C 85% 1.0 mph S1.6 kmh S 2.0 mph3.2 kmh 30.15 in1021.0 mb 0.00 in0.0 mm 0.00 in0.0 mm 0.00 in0.0 mm
07:00 AM 64.1°F17.8°C 59.5°F15.3°C 85% 3.0 mph SSW4.8 kmh SSW 3.0 mph4.8 kmh 30.15 in1021.0 mb 0.00 in0.0 mm 0.00 in0.0 mm 0.00 in0.0 mm
06:45 AM 63.5°F17.5°C 59.6°F15.3°C 87% 1.0 mph SW1.6 kmh SW 2.0 mph3.2 kmh 30.15 in1021.0 mb 0.00 in0.0 mm 0.00 in0.0 mm 0.00 in0.0 mm
06:30 AM 62.5°F16.9°C 58.9°F14.9°C 88% 1.0 mph SSE1.6 kmh SSE 2.0 mph3.2 kmh 30.15 in1021.0 mb 0.00 in0.0 mm 0.00 in0.0 mm 0.00 in0.0 mm
06:15 AM 62.4°F16.9°C 58.8°F14.9°C 88% 1.0 mph SSE1.6 kmh SSE 2.0 mph3.2 kmh 30.14 in1020.7 mb 0.00 in0.0 mm 0.00 in0.0 mm 0.00 in0.0 mm
06:00 AM 62.0°F16.7°C 58.7°F14.8°C 89% 3.0 mph S4.8 kmh S 3.0 mph4.8 kmh 30.14 in1020.7 mb 0.00 in0.0 mm 0.00 in0.0 mm 0.00 in0.0 mm
05:45 AM 61.6°F16.4°C 58.7°F14.8°C 90% 1.0 mph S1.6 kmh S 2.0 mph3.2 kmh 30.13 in1020.3 mb 0.00 in0.0 mm 0.00 in0.0 mm 0.00 in0.0 mm
05:30 AM 61.4°F16.3°C 58.1°F14.5°C 89% Calm Calm 1.0 mph1.6 kmh 30.13 in1020.3 mb 0.00 in0.0 mm 0.00 in0.0 mm 0.00 in0.0 mm
05:15 AM 61.7°F16.5°C 58.1°F14.5°C 88% Calm Calm 1.0 mph1.6 kmh 30.13 in1020.3 mb 0.00 in0.0 mm 0.00 in0.0 mm 0.00 in0.0 mm
05:00 AM 61.6°F16.4°C 58.3°F14.6°C 89% 1.0 mph S1.6 kmh S 1.0 mph1.6 kmh 30.13 in1020.3 mb 0.00 in0.0 mm 0.00 in0.0 mm 0.00 in0.0 mm
04:45 AM 61.1°F16.2°C 58.2°F14.6°C 90% Calm Calm 1.0 mph1.6 kmh 30.13 in1020.3 mb 0.00 in0.0 mm 0.00 in0.0 mm 0.00 in0.0 mm
04:30 AM 60.9°F16.1°C 58.0°F14.4°C 90% Calm Calm 1.0 mph1.6 kmh 30.13 in1020.3 mb 0.00 in0.0 mm 0.00 in0.0 mm 0.00 in0.0 mm
04:15 AM 60.9°F16.1°C 57.6°F14.2°C 89% Calm Calm -- 30.12 in1020.0 mb 0.00 in0.0 mm 0.00 in0.0 mm 0.00 in0.0 mm
04:00 AM 61.1°F16.2°C 57.5°F14.2°C 88% Calm Calm -- 30.12 in1020.0 mb 0.00 in0.0 mm 0.00 in0.0 mm 0.00 in0.0 mm
03:45 AM 61.3°F16.3°C 58.0°F14.4°C 89% Calm Calm -- 30.12 in1020.0 mb 0.00 in0.0 mm 0.00 in0.0 mm 0.00 in0.0 mm
03:30 AM 61.4°F16.3°C 57.8°F14.3°C 88% Calm Calm -- 30.11 in1019.6 mb 0.00 in0.0 mm 0.00 in0.0 mm 0.00 in0.0 mm
03:15 AM 61.6°F16.4°C 58.0°F14.4°C 88% Calm Calm -- 30.11 in1019.6 mb 0.00 in0.0 mm 0.00 in0.0 mm 0.00 in0.0 mm
03:00 AM 61.9°F16.6°C 58.3°F14.6°C 88% Calm Calm -- 30.11 in1019.6 mb 0.00 in0.0 mm 0.00 in0.0 mm 0.00 in0.0 mm
02:45 AM 61.9°F16.6°C 58.3°F14.6°C 88% Calm Calm 2.0 mph3.2 kmh 30.11 in1019.6 mb 0.00 in0.0 mm 0.00 in0.0 mm 0.00 in0.0 mm
02:30 AM 62.2°F16.8°C 58.3°F14.6°C 87% Calm Calm -- 30.11 in1019.6 mb 0.00 in0.0 mm 0.00 in0.0 mm 0.00 in0.0 mm
02:15 AM 62.2°F16.8°C 58.3°F14.6°C 87% Calm Calm -- 30.11 in1019.6 mb 0.00 in0.0 mm 0.00 in0.0 mm 0.00 in0.0 mm
02:00 AM 62.8°F17.1°C 58.9°F14.9°C 87% Calm Calm -- 30.12 in1020.0 mb 0.00 in0.0 mm 0.00 in0.0 mm 0.00 in0.0 mm
01:45 AM 63.3°F17.4°C 59.4°F15.2°C 87% Calm Calm -- 30.13 in1020.3 mb 0.00 in0.0 mm 0.00 in0.0 mm 0.00 in0.0 mm
01:30 AM 63.5°F17.5°C 59.3°F15.2°C 86% Calm Calm 1.0 mph1.6 kmh 30.13 in1020.3 mb 0.00 in0.0 mm 0.00 in0.0 mm 0.00 in0.0 mm
01:15 AM 63.8°F17.7°C 59.6°F15.3°C 86% Calm Calm 1.0 mph1.6 kmh 30.13 in1020.3 mb 0.00 in0.0 mm 0.00 in0.0 mm 0.00 in0.0 mm
01:00 AM 63.3°F17.4°C 58.4°F14.7°C 84% Calm Calm -- 30.13 in1020.3 mb 0.00 in0.0 mm 0.00 in0.0 mm 0.00 in0.0 mm
12:45 AM 63.9°F17.7°C 59.0°F15.0°C 84% 1.0 mph S1.6 kmh S 1.0 mph1.6 kmh 30.13 in1020.3 mb 0.00 in0.0 mm 0.00 in0.0 mm 0.00 in0.0 mm
12:30 AM 64.1°F17.8°C 58.9°F14.9°C 83% Calm Calm 1.0 mph1.6 kmh 30.14 in1020.7 mb 0.00 in0.0 mm 0.00 in0.0 mm 0.00 in0.0 mm
12:15 AM 64.4°F18.0°C 58.5°F14.7°C 81% Calm Calm -- 30.14 in1020.7 mb 0.00 in0.0 mm 0.00 in0.0 mm 0.00 in0.0 mm
12:00 AM 64.9°F18.3°C 58.6°F14.8°C 80% Calm Calm -- 30.14 in1020.7 mb 0.00 in0.0 mm 0.00 in0.0 mm 0.00 in0.0 mm